createdAt,value
2017-03-14T00:00:01.746Z,0
2017-03-14T00:01:12.504Z,0
2017-03-14T00:02:23.265Z,0
2017-03-14T00:03:33.620Z,0
2017-03-14T00:04:43.983Z,0
2017-03-14T00:05:54.368Z,0
2017-03-14T00:07:05.122Z,0
2017-03-14T00:08:15.496Z,0
2017-03-14T00:09:26.277Z,0
2017-03-14T00:10:37.029Z,0
2017-03-14T00:11:47.638Z,0
2017-03-14T00:12:58.426Z,0
2017-03-14T00:14:09.220Z,0
2017-03-14T00:15:19.995Z,0
2017-03-14T00:16:30.782Z,0
2017-03-14T00:17:41.157Z,0
2017-03-14T00:18:51.543Z,0
2017-03-14T00:20:02.318Z,0
2017-03-14T00:21:13.081Z,0
2017-03-14T00:22:23.464Z,0
2017-03-14T00:23:34.284Z,0
2017-03-14T00:24:45.092Z,0
2017-03-14T00:25:55.839Z,0
2017-03-14T00:27:06.222Z,0
2017-03-14T00:28:16.999Z,0
2017-03-14T00:29:27.784Z,0
2017-03-14T00:30:38.591Z,0
2017-03-14T00:31:49.344Z,0
2017-03-14T00:33:00.111Z,0
2017-03-14T00:34:10.880Z,0
2017-03-14T00:35:21.622Z,0
2017-03-14T00:36:32.004Z,0
2017-03-14T00:37:42.775Z,0
2017-03-14T00:38:53.544Z,0
2017-03-14T00:40:03.920Z,0
2017-03-14T00:41:14.269Z,0
2017-03-14T00:42:24.240Z,0
2017-03-14T00:43:34.996Z,0
2017-03-14T00:44:45.771Z,0
2017-03-14T00:45:56.532Z,0
2017-03-14T00:47:06.896Z,0
2017-03-14T00:48:17.682Z,0
2017-03-14T00:49:28.486Z,0
2017-03-14T00:50:39.256Z,0
2017-03-14T00:51:50.029Z,0
2017-03-14T00:53:00.381Z,0
2017-03-14T00:54:10.777Z,0
2017-03-14T00:55:21.526Z,0
2017-03-14T00:56:32.289Z,0
2017-03-14T00:57:43.061Z,0
2017-03-14T00:58:53.854Z,0
2017-03-14T01:00:04.622Z,0
2017-03-14T01:01:15.390Z,0
2017-03-14T01:02:25.753Z,0
2017-03-14T01:03:36.103Z,0
2017-03-14T01:04:46.117Z,0
2017-03-14T01:05:56.882Z,0
2017-03-14T01:07:07.653Z,0
2017-03-14T01:08:18.445Z,0
2017-03-14T01:09:29.210Z,0
2017-03-14T01:10:39.988Z,0
2017-03-14T01:11:50.753Z,0
2017-03-14T01:13:01.508Z,0
2017-03-14T01:14:12.266Z,0
2017-03-14T01:15:22.624Z,0
2017-03-14T01:16:33.008Z,0
2017-03-14T01:17:43.783Z,0
2017-03-14T01:18:54.182Z,0
2017-03-14T01:20:04.937Z,0
2017-03-14T01:21:15.719Z,0
2017-03-14T01:22:26.470Z,0
2017-03-14T01:23:37.231Z,0
2017-03-14T01:24:48.036Z,0
2017-03-14T01:25:58.812Z,0
2017-03-14T01:27:08.775Z,0
2017-03-14T01:28:19.199Z,0
2017-03-14T01:29:29.956Z,0
2017-03-14T01:30:40.715Z,0
2017-03-14T01:31:51.498Z,0
2017-03-14T01:33:01.877Z,0
2017-03-14T01:34:12.243Z,0
2017-03-14T01:35:22.996Z,0
2017-03-14T01:36:33.398Z,0
2017-03-14T01:37:44.168Z,0
2017-03-14T01:38:54.548Z,0
2017-03-14T01:40:05.313Z,0
2017-03-14T01:41:16.097Z,0
2017-03-14T01:42:26.461Z,0
2017-03-14T01:43:36.847Z,0
2017-03-14T01:44:47.615Z,0
2017-03-14T01:45:58.389Z,0
2017-03-14T01:47:09.160Z,0
2017-03-14T01:48:19.536Z,0
2017-03-14T01:49:30.308Z,0
2017-03-14T01:50:41.085Z,0
2017-03-14T01:51:51.834Z,0
2017-03-14T01:53:02.224Z,0
2017-03-14T01:54:13.003Z,0
2017-03-14T01:55:23.379Z,0
2017-03-14T01:56:34.138Z,0
2017-03-14T01:57:44.895Z,0
2017-03-14T01:58:55.661Z,0
2017-03-14T02:00:06.034Z,0
2017-03-14T02:01:16.793Z,0
2017-03-14T02:02:27.576Z,0
2017-03-14T02:03:38.394Z,0
2017-03-14T02:04:49.155Z,0
2017-03-14T02:05:59.918Z,0
2017-03-14T02:07:10.280Z,0
2017-03-14T02:08:21.047Z,0
2017-03-14T02:09:31.807Z,0
2017-03-14T02:10:42.189Z,0
2017-03-14T02:11:52.945Z,0
2017-03-14T02:13:03.721Z,0
2017-03-14T02:14:14.484Z,0
2017-03-14T02:15:25.260Z,0
2017-03-14T02:16:36.031Z,0
2017-03-14T02:17:46.807Z,0
2017-03-14T02:18:57.576Z,0
2017-03-14T02:20:08.325Z,0
2017-03-14T02:21:19.091Z,0
2017-03-14T02:22:29.888Z,0
2017-03-14T02:23:40.253Z,0
2017-03-14T02:24:51.018Z,0
2017-03-14T02:26:01.399Z,0
2017-03-14T02:27:12.158Z,0
2017-03-14T02:28:22.521Z,0
2017-03-14T02:29:33.287Z,0
2017-03-14T02:30:44.078Z,0
2017-03-14T02:31:54.418Z,0
2017-03-14T02:33:04.384Z,0
2017-03-14T02:34:14.741Z,0
2017-03-14T02:35:25.105Z,0
2017-03-14T02:36:35.866Z,0
2017-03-14T02:37:46.637Z,0
2017-03-14T02:38:57.409Z,0
2017-03-14T02:40:08.180Z,0
2017-03-14T02:41:18.946Z,0
2017-03-14T02:42:29.696Z,0
2017-03-14T02:43:40.465Z,0
2017-03-14T02:44:51.231Z,0
2017-03-14T02:46:02.009Z,0
2017-03-14T02:47:12.768Z,0
2017-03-14T02:48:23.521Z,0
2017-03-14T02:49:34.278Z,0
2017-03-14T02:50:45.042Z,0
2017-03-14T02:51:55.837Z,0
2017-03-14T02:53:06.193Z,0
2017-03-14T02:54:16.804Z,0
2017-03-14T02:55:27.574Z,0
2017-03-14T02:56:38.324Z,0
2017-03-14T02:57:48.740Z,0
2017-03-14T02:58:59.497Z,0
2017-03-14T03:00:10.296Z,0
2017-03-14T03:01:21.053Z,0
2017-03-14T03:32:16.161Z,0
2017-03-14T03:33:26.509Z,0
2017-03-14T03:34:36.861Z,0
2017-03-14T03:35:47.640Z,0
2017-03-14T03:36:58.380Z,0
2017-03-14T03:38:09.150Z,0
2017-03-14T03:39:19.918Z,0
2017-03-14T03:40:30.673Z,0
2017-03-14T03:41:41.434Z,0
2017-03-14T03:42:51.802Z,0
2017-03-14T03:44:02.560Z,0
2017-03-14T03:45:13.318Z,0
2017-03-14T03:46:24.074Z,0
2017-03-14T03:47:34.835Z,0
2017-03-14T03:48:45.611Z,0
2017-03-14T03:49:55.986Z,0
2017-03-14T03:51:06.756Z,0
2017-03-14T03:52:17.556Z,0
2017-03-14T03:53:28.317Z,0
2017-03-14T03:54:39.058Z,0
2017-03-14T03:55:49.039Z,0
2017-03-14T03:56:59.791Z,0
2017-03-14T03:58:10.572Z,0
2017-03-14T03:59:21.349Z,0
2017-03-14T04:00:32.105Z,0
2017-03-14T04:01:42.869Z,0
2017-03-14T04:02:53.871Z,0
2017-03-14T04:04:04.228Z,0
2017-03-14T04:05:15.003Z,0
2017-03-14T04:06:25.779Z,0
2017-03-14T04:07:36.557Z,0
2017-03-14T04:08:47.319Z,0
2017-03-14T04:09:58.074Z,0
2017-03-14T04:11:08.824Z,0
2017-03-14T04:12:19.171Z,0
2017-03-14T04:13:29.941Z,0
2017-03-14T04:14:40.714Z,0
2017-03-14T04:15:51.480Z,0
2017-03-14T04:17:01.846Z,0
2017-03-14T04:18:12.615Z,0
2017-03-14T04:19:23.379Z,0
2017-03-14T04:20:34.147Z,0
2017-03-14T04:21:44.908Z,0
2017-03-14T04:22:55.685Z,0
2017-03-14T04:24:06.434Z,0
2017-03-14T04:25:17.184Z,0
2017-03-14T04:26:27.954Z,0
2017-03-14T04:27:38.315Z,0
2017-03-14T04:28:49.094Z,0
2017-03-14T04:29:59.856Z,0
2017-03-14T04:31:10.617Z,0
2017-03-14T04:32:21.370Z,0
2017-03-14T04:33:32.134Z,0
2017-03-14T04:34:42.899Z,0
2017-03-14T04:35:53.665Z,0
2017-03-14T04:37:04.427Z,0
2017-03-14T04:38:15.198Z,0
2017-03-14T04:39:25.970Z,0
2017-03-14T04:40:36.726Z,0
2017-03-14T04:41:47.494Z,0
2017-03-14T04:42:57.868Z,0
2017-03-14T04:44:08.267Z,0
2017-03-14T04:45:19.054Z,0
2017-03-14T04:46:29.816Z,0
2017-03-14T04:47:40.569Z,0
2017-03-14T04:48:51.342Z,0
2017-03-14T04:50:01.714Z,0
2017-03-14T04:51:12.099Z,0
2017-03-14T04:52:22.484Z,0
2017-03-14T04:53:33.239Z,0
2017-03-14T04:54:44.001Z,0
2017-03-14T04:55:54.770Z,0
2017-03-14T04:57:05.535Z,0
2017-03-14T04:58:15.498Z,0
2017-03-14T04:59:26.273Z,0
2017-03-14T05:00:36.643Z,0
2017-03-14T05:01:47.003Z,0
2017-03-14T05:02:57.362Z,0
2017-03-14T05:04:08.138Z,0
2017-03-14T05:05:18.898Z,0
2017-03-14T05:06:29.655Z,0
2017-03-14T05:07:40.017Z,0
2017-03-14T05:08:50.770Z,0
2017-03-14T05:10:01.159Z,0
2017-03-14T05:11:11.155Z,0
2017-03-14T05:12:21.913Z,0
2017-03-14T05:13:32.687Z,0
2017-03-14T05:14:43.463Z,0
2017-03-14T05:15:53.461Z,0
2017-03-14T05:17:04.225Z,0
2017-03-14T05:18:15.005Z,0
2017-03-14T05:19:25.759Z,0
2017-03-14T05:20:36.501Z,0
2017-03-14T05:21:47.267Z,0
2017-03-14T05:22:58.062Z,0
2017-03-14T05:24:08.431Z,5
2017-03-14T05:25:19.206Z,5
2017-03-14T05:26:29.997Z,5
2017-03-14T05:27:40.361Z,5
2017-03-14T05:28:50.711Z,5
2017-03-14T05:30:01.481Z,5
2017-03-14T05:31:12.266Z,5
2017-03-14T05:32:22.638Z,5
2017-03-14T05:33:33.409Z,5
2017-03-14T05:34:44.166Z,5
2017-03-14T05:35:54.923Z,10
2017-03-14T05:37:04.879Z,10
2017-03-14T05:38:15.645Z,10
2017-03-14T05:39:25.603Z,10
2017-03-14T05:40:36.379Z,10
2017-03-14T05:41:46.778Z,10
2017-03-14T05:42:56.771Z,10
2017-03-14T05:44:07.525Z,10
2017-03-14T05:45:18.267Z,10
2017-03-14T05:46:29.034Z,15
2017-03-14T05:47:39.790Z,15
2017-03-14T05:48:50.572Z,15
2017-03-14T05:50:00.943Z,15
2017-03-14T05:51:11.713Z,15
2017-03-14T05:52:21.681Z,15
2017-03-14T05:53:32.427Z,15
2017-03-14T05:54:43.202Z,20
2017-03-14T05:55:53.551Z,20
2017-03-14T05:57:03.934Z,20
2017-03-14T05:58:14.689Z,20
2017-03-14T05:59:25.081Z,20
2017-03-14T06:00:35.852Z,20
2017-03-14T06:01:46.454Z,25
2017-03-14T06:02:56.821Z,25
2017-03-14T06:04:07.566Z,25
2017-03-14T06:05:18.325Z,25
2017-03-14T06:06:29.089Z,25
2017-03-14T06:07:39.854Z,25
2017-03-14T06:08:50.612Z,25
2017-03-14T06:10:01.385Z,30
2017-03-14T06:11:12.152Z,30
2017-03-14T06:12:22.938Z,30
2017-03-14T06:13:33.690Z,30
2017-03-14T06:14:44.466Z,30
2017-03-14T06:15:55.217Z,30
2017-03-14T06:17:05.988Z,35
2017-03-14T06:18:16.763Z,35
2017-03-14T06:19:27.549Z,35
2017-03-14T06:20:38.328Z,40
2017-03-14T06:21:49.090Z,40
2017-03-14T06:22:59.869Z,40
2017-03-14T06:24:10.654Z,40
2017-03-14T06:25:21.455Z,40
2017-03-14T06:26:31.823Z,40
2017-03-14T06:27:42.615Z,40
2017-03-14T06:28:53.376Z,40
2017-03-14T06:30:04.154Z,40
2017-03-14T06:31:14.928Z,40
2017-03-14T06:32:25.710Z,40
2017-03-14T06:33:36.095Z,45
2017-03-14T06:34:46.841Z,45
2017-03-14T06:35:57.600Z,45
2017-03-14T06:37:08.365Z,45
2017-03-14T06:38:19.123Z,50
2017-03-14T06:39:29.879Z,50
2017-03-14T06:40:40.677Z,50
2017-03-14T06:41:51.063Z,50
2017-03-14T06:43:01.826Z,50
2017-03-14T06:44:12.611Z,50
2017-03-14T06:45:23.407Z,50
2017-03-14T06:46:34.203Z,45
2017-03-14T06:47:44.994Z,45
2017-03-14T06:48:55.995Z,45
2017-03-14T06:50:06.782Z,50
2017-03-14T06:51:17.176Z,50
2017-03-14T06:52:27.935Z,50
2017-03-14T06:53:38.337Z,50
2017-03-14T06:54:49.117Z,50
2017-03-14T06:55:59.893Z,50
2017-03-14T06:57:10.281Z,50
2017-03-14T06:58:21.049Z,55
2017-03-14T06:59:31.822Z,55
2017-03-14T07:00:42.583Z,60
2017-03-14T07:01:53.353Z,60
2017-03-14T07:03:04.116Z,60
2017-03-14T07:04:14.883Z,65
2017-03-14T07:05:24.862Z,65
2017-03-14T07:06:35.637Z,65
2017-03-14T07:07:46.434Z,70
2017-03-14T07:08:57.214Z,70
2017-03-14T07:10:07.979Z,75
2017-03-14T07:11:18.748Z,75
2017-03-14T07:12:29.517Z,80
2017-03-14T07:13:40.289Z,80
2017-03-14T07:14:50.627Z,80
2017-03-14T07:16:01.410Z,80
2017-03-14T07:17:12.175Z,80
2017-03-14T07:18:22.932Z,80
2017-03-14T07:19:33.301Z,80
2017-03-14T07:20:44.081Z,85
2017-03-14T07:21:54.447Z,85
2017-03-14T07:23:05.216Z,90
2017-03-14T07:24:15.975Z,90
2017-03-14T07:25:26.744Z,95
2017-03-14T07:26:37.507Z,100
2017-03-14T07:27:48.288Z,100
2017-03-14T07:28:59.058Z,105
2017-03-14T07:30:09.855Z,110
2017-03-14T07:31:20.246Z,115
2017-03-14T07:32:31.022Z,120
2017-03-14T07:33:41.398Z,120
2017-03-14T07:34:52.172Z,120
2017-03-14T07:36:02.941Z,125
2017-03-14T07:37:13.693Z,125
2017-03-14T07:38:24.483Z,125
2017-03-14T07:39:35.245Z,120
2017-03-14T07:40:46.035Z,120
2017-03-14T07:41:56.817Z,120
2017-03-14T07:43:07.593Z,125
2017-03-14T07:44:18.404Z,125
2017-03-14T07:45:29.175Z,130
2017-03-14T07:46:39.926Z,130
2017-03-14T07:47:50.311Z,135
2017-03-14T07:49:01.089Z,135
2017-03-14T07:50:11.863Z,135
2017-03-14T07:51:22.635Z,140
2017-03-14T07:52:33.429Z,135
2017-03-14T07:53:43.802Z,135
2017-03-14T07:54:54.159Z,140
2017-03-14T07:56:04.927Z,140
2017-03-14T07:57:15.691Z,140
2017-03-14T07:58:26.456Z,145
2017-03-14T07:59:37.236Z,145
2017-03-14T08:00:48.014Z,145
2017-03-14T08:01:58.787Z,145
2017-03-14T08:03:09.551Z,145
2017-03-14T08:04:19.967Z,150
2017-03-14T08:05:30.335Z,150
2017-03-14T08:06:40.698Z,150
2017-03-14T08:07:51.458Z,145
2017-03-14T08:09:02.515Z,145
2017-03-14T08:10:13.275Z,150
2017-03-14T08:11:24.056Z,155
2017-03-14T08:12:34.831Z,160
2017-03-14T08:13:44.834Z,160
2017-03-14T08:14:55.623Z,170
2017-03-14T08:16:06.002Z,175
2017-03-14T08:17:16.768Z,180
2017-03-14T08:18:27.130Z,185
2017-03-14T08:19:37.884Z,200
2017-03-14T08:20:48.654Z,200
2017-03-14T08:21:58.628Z,200
2017-03-14T08:23:09.001Z,205
2017-03-14T08:24:19.365Z,220
2017-03-14T08:25:30.159Z,205
2017-03-14T08:26:40.538Z,205
2017-03-14T08:27:51.294Z,205
2017-03-14T08:29:02.057Z,210
2017-03-14T08:30:12.863Z,210
2017-03-14T08:31:23.215Z,220
2017-03-14T08:32:33.975Z,225
2017-03-14T08:33:44.337Z,230
2017-03-14T08:34:55.116Z,235
2017-03-14T08:36:05.888Z,235
2017-03-14T08:37:16.651Z,235
2017-03-14T08:38:27.434Z,235
2017-03-14T08:39:37.795Z,235
2017-03-14T08:40:48.604Z,235
2017-03-14T08:41:59.379Z,235
2017-03-14T08:43:10.190Z,230
2017-03-14T08:44:20.951Z,230
2017-03-14T08:45:31.705Z,230
2017-03-14T08:46:42.092Z,230
2017-03-14T08:47:52.875Z,230
2017-03-14T08:49:02.834Z,225
2017-03-14T08:50:13.589Z,225
2017-03-14T08:51:24.372Z,225
2017-03-14T08:52:34.774Z,225
2017-03-14T08:53:45.161Z,225
2017-03-14T08:54:55.949Z,225
2017-03-14T08:56:06.716Z,225
2017-03-14T08:57:17.479Z,230
2017-03-14T08:58:28.297Z,230
2017-03-14T08:59:39.060Z,230
2017-03-14T09:00:49.853Z,225
2017-03-14T09:02:00.603Z,225
2017-03-14T09:03:11.372Z,225
2017-03-14T09:04:22.141Z,225
2017-03-14T09:05:32.920Z,225
2017-03-14T09:06:42.883Z,225
2017-03-14T09:07:53.693Z,225
2017-03-14T09:09:04.066Z,225
2017-03-14T09:10:14.846Z,220
2017-03-14T09:11:25.222Z,220
2017-03-14T09:12:35.192Z,220
2017-03-14T09:13:45.570Z,225
2017-03-14T09:14:56.330Z,220
2017-03-14T09:16:07.101Z,215
2017-03-14T09:17:17.866Z,215
2017-03-14T09:18:28.225Z,215
2017-03-14T09:19:39.005Z,215
2017-03-14T09:20:49.814Z,210
2017-03-14T09:22:00.170Z,210
2017-03-14T09:23:10.930Z,210
2017-03-14T09:24:21.291Z,210
2017-03-14T09:25:32.072Z,210
2017-03-14T09:26:42.374Z,205
2017-03-14T09:27:53.137Z,200
2017-03-14T09:29:03.938Z,200
2017-03-14T09:30:14.313Z,190
2017-03-14T09:31:25.301Z,190
2017-03-14T09:32:35.688Z,175
2017-03-14T09:33:46.454Z,175
2017-03-14T09:34:56.813Z,185
2017-03-14T09:36:07.598Z,220
2017-03-14T09:37:19.361Z,205
2017-03-14T09:38:30.152Z,210
2017-03-14T09:39:40.928Z,285
2017-03-14T09:40:51.734Z,205
2017-03-14T09:42:02.509Z,190
2017-03-14T09:43:12.966Z,210
2017-03-14T09:44:23.755Z,190
2017-03-14T09:45:34.289Z,180
2017-03-14T09:46:44.842Z,200
2017-03-14T09:47:55.643Z,165
2017-03-14T09:49:06.020Z,170
2017-03-14T09:50:16.831Z,150
2017-03-14T09:51:31.232Z,145
2017-03-14T09:52:42.948Z,145
2017-03-14T09:53:53.742Z,145
2017-03-14T09:55:04.529Z,155
2017-03-14T09:56:15.321Z,165
2017-03-14T09:57:26.112Z,190
2017-03-14T09:58:36.497Z,170
2017-03-14T09:59:47.265Z,235
2017-03-14T10:00:57.634Z,200
2017-03-14T10:02:08.408Z,205
2017-03-14T10:03:19.172Z,190
2017-03-14T10:04:29.181Z,270
2017-03-14T10:05:39.983Z,250
2017-03-14T10:06:50.341Z,230
2017-03-14T10:08:01.089Z,260
2017-03-14T10:09:11.833Z,230
2017-03-14T10:10:22.580Z,245
2017-03-14T10:11:33.350Z,265
2017-03-14T10:12:44.162Z,265
2017-03-14T10:13:54.904Z,260
2017-03-14T10:15:05.655Z,265
2017-03-14T10:16:16.415Z,260
2017-03-14T10:17:27.182Z,265
2017-03-14T10:18:37.950Z,265
2017-03-14T10:19:48.703Z,265
2017-03-14T10:20:59.455Z,270
2017-03-14T10:22:10.739Z,265
2017-03-14T10:23:21.076Z,265
2017-03-14T10:24:31.423Z,260
2017-03-14T10:25:41.775Z,265
2017-03-14T10:26:52.118Z,270
2017-03-14T10:28:02.457Z,265
2017-03-14T10:29:12.816Z,270
2017-03-14T10:30:23.182Z,275
2017-03-14T10:31:33.216Z,270
2017-03-14T10:32:43.568Z,270
2017-03-14T10:33:53.930Z,280
2017-03-14T10:35:04.282Z,275
2017-03-14T10:36:14.652Z,275
2017-03-14T10:37:24.988Z,275
2017-03-14T10:38:35.333Z,280
2017-03-14T10:39:45.848Z,285
2017-03-14T10:40:56.204Z,285
2017-03-14T10:42:06.553Z,270
2017-03-14T10:43:16.910Z,260
2017-03-14T10:44:27.241Z,235
2017-03-14T10:45:37.580Z,200
2017-03-14T10:46:47.902Z,275
2017-03-14T10:47:57.973Z,240
2017-03-14T10:49:08.385Z,265
2017-03-14T10:50:18.737Z,260
2017-03-14T10:51:29.098Z,270
2017-03-14T10:52:39.430Z,205
2017-03-14T10:53:49.773Z,255
2017-03-14T10:55:00.107Z,285
2017-03-14T10:56:10.458Z,275
2017-03-14T10:57:20.794Z,285
2017-03-14T10:58:30.808Z,235
2017-03-14T10:59:41.158Z,300
2017-03-14T11:00:51.497Z,305
2017-03-14T11:02:01.854Z,300
2017-03-14T11:03:11.888Z,300
2017-03-14T11:04:22.228Z,290
2017-03-14T11:05:32.565Z,300
2017-03-14T11:06:42.589Z,285
2017-03-14T11:07:52.921Z,295
2017-03-14T11:09:03.279Z,280
2017-03-14T11:10:13.311Z,175
2017-03-14T11:11:23.670Z,270
2017-03-14T11:12:34.016Z,285
2017-03-14T11:13:43.926Z,275
2017-03-14T11:14:53.961Z,275
2017-03-14T11:16:03.984Z,170
2017-03-14T11:17:14.013Z,170
2017-03-14T11:18:24.351Z,285
2017-03-14T11:19:34.684Z,295
2017-03-14T11:20:45.012Z,270
2017-03-14T11:21:55.042Z,300
2017-03-14T11:23:05.369Z,310
2017-03-14T11:24:15.408Z,310
2017-03-14T11:25:25.778Z,310
2017-03-14T11:26:36.114Z,320
2017-03-14T11:27:46.473Z,325
2017-03-14T11:28:56.811Z,320
2017-03-14T11:30:07.159Z,220
2017-03-14T11:31:17.191Z,230
2017-03-14T11:32:27.540Z,265
2017-03-14T11:33:37.560Z,325
2017-03-14T11:34:47.598Z,325
2017-03-14T11:35:57.949Z,320
2017-03-14T11:37:08.301Z,325
2017-03-14T11:38:18.653Z,350
2017-03-14T11:39:28.690Z,345
2017-03-14T11:40:39.031Z,355
2017-03-14T11:41:48.748Z,335
2017-03-14T11:42:58.797Z,350
2017-03-14T11:44:08.838Z,360
2017-03-14T11:45:19.187Z,360
2017-03-14T11:46:29.507Z,340
2017-03-14T11:47:39.873Z,285
2017-03-14T11:48:50.212Z,240
2017-03-14T11:50:00.235Z,225
2017-03-14T11:51:10.568Z,225
2017-03-14T11:52:20.578Z,200
2017-03-14T11:53:30.909Z,215
2017-03-14T11:54:40.619Z,215
2017-03-14T11:55:50.957Z,300
2017-03-14T11:57:01.030Z,335
2017-03-14T11:58:11.055Z,325
2017-03-14T11:59:21.095Z,295
2017-03-14T12:00:31.448Z,330
2017-03-14T12:01:41.794Z,325
2017-03-14T12:02:51.822Z,320
2017-03-14T12:04:02.178Z,330
2017-03-14T12:05:12.503Z,330
2017-03-14T12:06:22.843Z,310
2017-03-14T12:07:33.183Z,240
2017-03-14T12:08:43.527Z,300
2017-03-14T12:09:53.878Z,305
2017-03-14T12:11:04.225Z,315
2017-03-14T12:12:14.251Z,315
2017-03-14T12:13:24.599Z,245
2017-03-14T12:14:34.969Z,325
2017-03-14T12:15:45.308Z,330
2017-03-14T12:16:55.343Z,330
2017-03-14T12:18:05.698Z,315
2017-03-14T12:19:16.045Z,320
2017-03-14T12:20:26.384Z,300
2017-03-14T12:21:36.739Z,230
2017-03-14T12:22:47.078Z,310
2017-03-14T12:23:57.125Z,310
2017-03-14T12:25:07.469Z,300
2017-03-14T12:26:17.805Z,290
2017-03-14T12:27:28.139Z,220
2017-03-14T12:28:38.174Z,225
2017-03-14T12:29:48.546Z,225
2017-03-14T12:30:58.887Z,195
2017-03-14T12:32:09.267Z,245
2017-03-14T12:33:19.356Z,235
2017-03-14T12:34:29.700Z,220
2017-03-14T12:35:40.040Z,280
2017-03-14T12:36:50.406Z,305
2017-03-14T12:38:00.612Z,270
2017-03-14T12:39:10.658Z,280
2017-03-14T12:40:20.691Z,235
2017-03-14T12:41:31.048Z,200
2017-03-14T12:42:41.092Z,195
2017-03-14T12:43:51.452Z,225
2017-03-14T12:45:01.485Z,210
2017-03-14T12:46:11.207Z,200
2017-03-14T12:47:21.576Z,210
2017-03-14T12:48:31.918Z,225
2017-03-14T12:49:41.975Z,200
2017-03-14T12:50:52.312Z,185
2017-03-14T12:52:02.653Z,185
2017-03-14T12:53:12.996Z,290
2017-03-14T12:54:23.408Z,205
2017-03-14T12:55:33.437Z,205
2017-03-14T12:56:43.477Z,205
2017-03-14T12:57:53.832Z,215
2017-03-14T12:59:03.889Z,300
2017-03-14T13:00:14.232Z,315
2017-03-14T13:01:24.563Z,255
2017-03-14T13:02:34.583Z,235
2017-03-14T13:03:44.945Z,245
2017-03-14T13:04:55.283Z,230
2017-03-14T13:06:05.613Z,225
2017-03-14T13:07:15.320Z,220
2017-03-14T13:08:25.647Z,220
2017-03-14T13:09:35.985Z,215
2017-03-14T13:10:46.021Z,215
2017-03-14T13:11:56.058Z,210
2017-03-14T13:13:06.388Z,220
2017-03-14T13:14:16.424Z,205
2017-03-14T13:15:26.768Z,200
2017-03-14T13:16:36.799Z,210
2017-03-14T13:17:46.826Z,200
2017-03-14T13:18:56.847Z,200
2017-03-14T13:20:07.189Z,195
2017-03-14T13:21:17.541Z,200
2017-03-14T13:22:27.887Z,205
2017-03-14T13:23:38.231Z,210
2017-03-14T13:24:48.569Z,200
2017-03-14T13:25:58.908Z,190
2017-03-14T13:27:09.288Z,165
2017-03-14T13:28:19.637Z,145
2017-03-14T13:29:29.676Z,145
2017-03-14T13:30:40.024Z,135
2017-03-14T13:31:50.378Z,130
2017-03-14T13:33:00.707Z,140
2017-03-14T13:34:10.756Z,145
2017-03-14T13:35:20.781Z,145
2017-03-14T13:36:31.150Z,140
2017-03-14T13:37:41.543Z,140
2017-03-14T13:38:51.895Z,135
2017-03-14T13:40:01.928Z,130
2017-03-14T13:41:12.256Z,125
2017-03-14T13:42:22.576Z,105
2017-03-14T13:43:32.928Z,90
2017-03-14T13:44:43.261Z,80
2017-03-14T13:45:53.277Z,75
2017-03-14T13:47:03.310Z,75
2017-03-14T13:48:13.345Z,80
2017-03-14T13:49:23.374Z,85
2017-03-14T13:50:33.736Z,85
2017-03-14T13:51:44.078Z,85
2017-03-14T13:52:53.788Z,85
2017-03-14T13:54:03.827Z,80
2017-03-14T13:55:14.175Z,70
2017-03-14T13:56:24.212Z,65
2017-03-14T13:57:34.570Z,65
2017-03-14T13:58:44.603Z,70
2017-03-14T13:59:54.628Z,65
2017-03-14T14:01:04.649Z,70
2017-03-14T14:02:14.683Z,70
2017-03-14T14:03:25.049Z,80
2017-03-14T14:04:35.086Z,95
2017-03-14T14:05:45.458Z,110
2017-03-14T14:06:55.819Z,130
2017-03-14T14:08:06.148Z,135
2017-03-14T14:09:16.175Z,155
2017-03-14T14:10:26.515Z,155
2017-03-14T14:11:36.869Z,165
2017-03-14T14:12:47.224Z,175
2017-03-14T14:13:57.267Z,195
2017-03-14T14:15:07.594Z,175
2017-03-14T14:16:17.938Z,195
2017-03-14T14:17:28.285Z,190
2017-03-14T14:18:38.319Z,185
2017-03-14T14:19:48.670Z,170
2017-03-14T14:20:59.022Z,170
2017-03-14T14:22:09.376Z,190
2017-03-14T14:23:19.738Z,170
2017-03-14T14:24:30.088Z,170
2017-03-14T14:25:39.785Z,170
2017-03-14T14:26:50.115Z,175
2017-03-14T14:28:00.440Z,170
2017-03-14T14:29:10.790Z,175
2017-03-14T14:30:20.812Z,180
2017-03-14T14:31:31.161Z,180
2017-03-14T14:32:41.491Z,195
2017-03-14T14:33:51.860Z,235
2017-03-14T14:35:02.205Z,240
2017-03-14T14:36:12.234Z,225
2017-03-14T14:37:21.989Z,220
2017-03-14T14:38:32.075Z,210
2017-03-14T14:39:42.497Z,195
2017-03-14T14:40:52.862Z,175
2017-03-14T14:42:03.256Z,185
2017-03-14T14:43:13.646Z,175
2017-03-14T14:44:24.041Z,205
2017-03-14T14:45:34.463Z,195
2017-03-14T14:46:44.950Z,185
2017-03-14T14:47:55.321Z,185
2017-03-14T14:49:05.943Z,165
2017-03-14T14:50:16.380Z,160
2017-03-14T14:51:26.509Z,165
2017-03-14T14:52:36.886Z,165
2017-03-14T14:53:47.211Z,165
2017-03-14T14:54:57.861Z,165
2017-03-14T14:56:07.903Z,175
2017-03-14T14:57:18.263Z,180
2017-03-14T14:58:28.648Z,155
2017-03-14T14:59:39.160Z,155
2017-03-14T15:00:49.715Z,145
2017-03-14T15:02:00.228Z,140
2017-03-14T15:03:10.600Z,135
2017-03-14T15:04:20.995Z,135
2017-03-14T15:05:31.356Z,140
2017-03-14T15:06:41.811Z,155
2017-03-14T15:07:52.306Z,165
2017-03-14T15:09:02.383Z,140
2017-03-14T15:10:12.912Z,155
2017-03-14T15:11:23.021Z,145
2017-03-14T15:12:33.527Z,135
2017-03-14T15:13:43.899Z,135
2017-03-14T15:14:53.838Z,125
2017-03-14T15:16:04.320Z,110
2017-03-14T15:17:20.466Z,115
2017-03-14T15:18:32.469Z,120
2017-03-14T15:19:44.141Z,125
2017-03-14T15:20:54.714Z,120
2017-03-14T15:22:05.230Z,125
2017-03-14T15:23:15.241Z,115
2017-03-14T15:24:25.632Z,120
2017-03-14T15:25:36.106Z,115
2017-03-14T15:26:45.865Z,105
2017-03-14T15:27:56.425Z,105
2017-03-14T15:29:06.889Z,105
2017-03-14T15:30:17.271Z,105
2017-03-14T15:31:27.729Z,95
2017-03-14T15:32:37.963Z,95
2017-03-14T15:33:50.861Z,95
2017-03-14T15:35:03.021Z,95
2017-03-14T15:36:14.147Z,90
2017-03-14T15:37:26.129Z,90
2017-03-14T15:38:37.355Z,85
2017-03-14T15:39:49.047Z,75
2017-03-14T15:41:00.771Z,75
2017-03-14T15:42:14.313Z,80
2017-03-14T15:43:25.999Z,80
2017-03-14T15:44:37.666Z,75
2017-03-14T15:45:49.662Z,65
2017-03-14T15:47:01.359Z,60
2017-03-14T15:48:12.941Z,55
2017-03-14T15:49:24.558Z,55
2017-03-14T15:50:36.675Z,55
2017-03-14T15:51:49.351Z,60
2017-03-14T15:53:01.583Z,60
2017-03-14T15:54:14.816Z,60
2017-03-14T15:55:26.589Z,60
2017-03-14T15:56:39.042Z,60
2017-03-14T15:57:49.846Z,55
2017-03-14T15:59:02.765Z,55
2017-03-14T16:00:15.048Z,55
2017-03-14T16:01:27.406Z,55
2017-03-14T16:02:39.664Z,50
2017-03-14T16:03:51.418Z,50
2017-03-14T16:05:03.676Z,50
2017-03-14T16:06:15.853Z,45
2017-03-14T16:07:27.153Z,45
2017-03-14T16:08:43.377Z,40
2017-03-14T16:09:55.165Z,40
2017-03-14T16:11:07.673Z,35
2017-03-14T16:12:19.891Z,35
2017-03-14T16:13:31.489Z,35
2017-03-14T16:14:46.021Z,30
2017-03-14T16:15:56.945Z,30
2017-03-14T16:17:07.982Z,30
2017-03-14T16:18:21.772Z,25
2017-03-14T16:19:33.319Z,25
2017-03-14T16:20:44.677Z,25
2017-03-14T16:21:58.005Z,25
2017-03-14T16:23:08.799Z,20
2017-03-14T16:24:18.956Z,20
2017-03-14T16:25:29.335Z,20
2017-03-14T16:26:39.703Z,20
2017-03-14T16:27:50.067Z,20
2017-03-14T16:29:00.420Z,20
2017-03-14T16:30:10.802Z,20
2017-03-14T16:31:20.846Z,20
2017-03-14T16:32:31.217Z,20
2017-03-14T16:33:41.575Z,15
2017-03-14T16:34:51.924Z,15
2017-03-14T16:36:02.279Z,15
2017-03-14T16:37:12.618Z,15
2017-03-14T16:38:23.004Z,15
2017-03-14T16:39:33.382Z,10
2017-03-14T16:40:43.418Z,10
2017-03-14T16:41:53.767Z,10
2017-03-14T16:43:04.127Z,10
2017-03-14T16:44:14.500Z,10
2017-03-14T16:45:24.533Z,10
2017-03-14T16:46:34.583Z,5
2017-03-14T16:47:44.927Z,5
2017-03-14T16:48:55.295Z,5
2017-03-14T16:50:05.693Z,5
2017-03-14T16:51:16.046Z,5
2017-03-14T16:52:26.396Z,5
2017-03-14T16:53:36.749Z,5
2017-03-14T16:54:47.098Z,0
2017-03-14T16:55:57.454Z,0
2017-03-14T16:57:07.824Z,0
2017-03-14T16:58:18.185Z,0
2017-03-14T16:59:28.572Z,0
2017-03-14T17:00:38.923Z,0
2017-03-14T17:01:49.286Z,0
2017-03-14T17:02:59.328Z,0
2017-03-14T17:04:09.661Z,0
2017-03-14T17:05:19.704Z,0
2017-03-14T17:06:30.079Z,0
2017-03-14T17:07:40.449Z,0
2017-03-14T17:08:50.491Z,0
2017-03-14T17:10:00.845Z,0
2017-03-14T17:11:10.877Z,0